Terminal Aerodrome Forecast
Issued by NWS Sterling, VA

Home | Current Version | Previous Version | Text Only | Print | Product List | Glossary On
Versions: 1 2 3 4 5 6 7 8 9 10 11 12 13 14
000
FTUS41 KLWX 021139
TAFCHO
TAF
KCHO 021139Z 0212/0312 20004KT 3SM BR SCT008 SCT100
     FM021300 30006KT P6SM SCT100
     FM021500 31008G16KT P6SM SCT200
     FM022300 31008KT P6SM BKN200
     FM030300 VRB04KT P6SM BKN150=

USA.gov is the U.S. government's official web portal to all federal, state and local government web resources and services.